createdAt,value
2023-03-29T00:03:45.695Z,-5.30
2023-03-29T00:09:04.860Z,-5.50
2023-03-29T00:14:07.620Z,-5.50
2023-03-29T00:19:10.571Z,-5.60
2023-03-29T00:24:13.018Z,-5.70
2023-03-29T00:29:16.117Z,-5.60
2023-03-29T00:34:18.714Z,-5.60
2023-03-29T00:39:21.965Z,-5.70
2023-03-29T00:44:55.355Z,-5.80
2023-03-29T00:50:02.845Z,-5.90
2023-03-29T00:55:11.103Z,-6.10
2023-03-29T01:00:20.973Z,-6.00
2023-03-29T01:05:32.300Z,-5.90
2023-03-29T01:10:40.605Z,-5.80
2023-03-29T01:15:46.351Z,-5.80
2023-03-29T01:21:15.384Z,-5.80
2023-03-29T01:26:40.957Z,-5.70
2023-03-29T01:31:52.908Z,-5.80
2023-03-29T01:37:04.561Z,-5.90
2023-03-29T01:42:13.244Z,-5.90
2023-03-29T01:47:37.874Z,-6.10
2023-03-29T01:53:05.482Z,-6.10
2023-03-29T01:58:11.982Z,-6.00
2023-03-29T02:03:17.600Z,-5.90
2023-03-29T02:08:23.195Z,-5.90
2023-03-29T02:13:26.078Z,-5.90
2023-03-29T02:18:30.110Z,-5.90
2023-03-29T02:23:45.469Z,-5.80
2023-03-29T02:28:48.796Z,-5.70
2023-03-29T02:34:16.073Z,-5.70
2023-03-29T02:39:19.811Z,-5.70
2023-03-29T02:44:31.316Z,-5.80
2023-03-29T02:49:33.979Z,-5.80
2023-03-29T02:54:43.080Z,-5.90
2023-03-29T02:59:45.737Z,-5.90
2023-03-29T03:04:48.460Z,-6.00
2023-03-29T03:09:52.033Z,-6.00
2023-03-29T03:14:54.742Z,-5.90
2023-03-29T03:19:57.273Z,-5.90
2023-03-29T03:24:59.750Z,-5.80
2023-03-29T03:30:05.431Z,-5.70
2023-03-29T03:35:26.406Z,-5.70
2023-03-29T03:40:29.053Z,-5.70
2023-03-29T03:45:31.835Z,-5.70
2023-03-29T03:50:49.879Z,-5.70
2023-03-29T03:55:56.007Z,-5.70
2023-03-29T04:01:03.201Z,-5.80
2023-03-29T04:06:23.138Z,-5.90
2023-03-29T04:11:59.592Z,-5.70
2023-03-29T04:17:02.313Z,-5.60
2023-03-29T04:22:23.545Z,-5.70
2023-03-29T04:27:26.277Z,-5.60
2023-03-29T04:32:29.375Z,-5.60
2023-03-29T04:37:40.299Z,-5.50
2023-03-29T04:42:45.829Z,-5.40
2023-03-29T04:47:48.523Z,-5.30
2023-03-29T04:52:54.146Z,-5.10
2023-03-29T04:57:58.306Z,-5.10
2023-03-29T05:03:07.548Z,-5.10
2023-03-29T05:08:14.615Z,-4.90
2023-03-29T05:13:37.782Z,-4.80
2023-03-29T05:18:40.786Z,-4.60
2023-03-29T05:23:43.517Z,-4.50
2023-03-29T05:28:52.340Z,-3.70
2023-03-29T05:33:55.208Z,-3.40
2023-03-29T05:38:59.836Z,-3.50
2023-03-29T05:44:04.150Z,-3.60
2023-03-29T05:49:07.338Z,-3.50
2023-03-29T05:54:28.923Z,-3.30
2023-03-29T05:59:33.892Z,-2.50
2023-03-29T06:04:37.473Z,-2.30
2023-03-29T06:09:55.561Z,-2.20
2023-03-29T06:15:03.967Z,-2.00
2023-03-29T06:20:33.114Z,-1.60
2023-03-29T06:25:43.240Z,-1.30
2023-03-29T06:30:46.804Z,-0.90
2023-03-29T06:35:50.573Z,-0.50
2023-03-29T06:41:03.953Z,0.00
2023-03-29T06:46:23.453Z,0.40
2023-03-29T06:51:31.379Z,0.70
2023-03-29T06:56:34.528Z,1.00
2023-03-29T07:01:40.168Z,1.20
2023-03-29T07:07:01.649Z,1.40
2023-03-29T07:12:07.556Z,1.60
2023-03-29T07:17:10.667Z,1.80
2023-03-29T07:22:16.436Z,1.70
2023-03-29T07:27:24.479Z,1.80
2023-03-29T07:32:28.194Z,2.00
2023-03-29T07:37:46.434Z,2.30
2023-03-29T07:42:54.189Z,2.50
2023-03-29T07:47:59.564Z,2.90
2023-03-29T07:53:09.103Z,3.30
2023-03-29T07:58:11.910Z,3.60
2023-03-29T08:03:15.415Z,3.90
2023-03-29T08:08:18.404Z,4.10
2023-03-29T08:13:32.282Z,4.30
2023-03-29T08:18:57.655Z,4.60
2023-03-29T08:24:06.259Z,4.80
2023-03-29T08:29:23.286Z,5.20
2023-03-29T08:34:25.964Z,5.60
2023-03-29T08:39:43.906Z,5.80
2023-03-29T08:45:30.171Z,6.00
2023-03-29T08:50:48.110Z,6.20
2023-03-29T08:55:53.089Z,6.60
2023-03-29T09:01:11.659Z,6.90
2023-03-29T09:06:27.559Z,7.00
2023-03-29T09:11:59.947Z,7.40
2023-03-29T09:17:02.869Z,7.70
2023-03-29T09:22:05.651Z,7.80
2023-03-29T09:27:27.385Z,7.90
2023-03-29T09:33:08.779Z,8.10
2023-03-29T09:38:30.166Z,8.40
2023-03-29T09:43:37.932Z,8.70
2023-03-29T09:48:46.528Z,8.70
2023-03-29T09:53:49.861Z,8.80
2023-03-29T09:59:12.396Z,9.00
2023-03-29T10:04:16.890Z,9.20
2023-03-29T10:09:28.997Z,9.40
2023-03-29T10:14:46.520Z,9.50
2023-03-29T10:20:01.457Z,9.60
2023-03-29T10:25:13.688Z,9.50
2023-03-29T10:30:25.460Z,9.40
2023-03-29T10:40:43.415Z,9.60
2023-03-29T10:45:53.977Z,9.70
2023-03-29T10:51:02.060Z,9.70
2023-03-29T10:56:20.080Z,10.00
2023-03-29T11:02:00.320Z,10.20
2023-03-29T11:07:08.696Z,10.30
2023-03-29T11:12:30.221Z,10.30
2023-03-29T11:18:16.234Z,10.30
2023-03-29T11:24:00.992Z,10.30
2023-03-29T11:29:18.940Z,10.30
2023-03-29T11:34:53.311Z,10.30
2023-03-29T11:40:36.147Z,10.70
2023-03-29T11:45:45.177Z,10.80
2023-03-29T11:51:19.762Z,11.10
2023-03-29T11:56:38.248Z,11.10
2023-03-29T12:02:05.629Z,10.90
2023-03-29T12:07:19.636Z,10.90
2023-03-29T12:12:46.120Z,10.70
2023-03-29T12:18:32.218Z,10.50
2023-03-29T12:23:34.817Z,10.60
2023-03-29T12:29:14.381Z,10.90
2023-03-29T12:34:36.707Z,10.90
2023-03-29T12:40:19.299Z,11.20
2023-03-29T12:45:48.456Z,11.20
2023-03-29T12:50:54.276Z,11.20
2023-03-29T12:56:02.959Z,11.30
2023-03-29T13:01:21.490Z,11.30
2023-03-29T13:06:33.875Z,11.40
2023-03-29T13:11:42.716Z,11.50
2023-03-29T13:16:45.412Z,11.80
2023-03-29T13:27:06.006Z,12.30
2023-03-29T13:32:39.206Z,12.50
2023-03-29T13:37:58.182Z,12.60
2023-03-29T13:43:19.244Z,12.60
2023-03-29T13:48:30.063Z,12.80
2023-03-29T13:58:54.139Z,13.70
2023-03-29T14:03:57.658Z,13.40
2023-03-29T14:09:07.293Z,13.10
2023-03-29T14:14:10.698Z,13.10
2023-03-29T14:19:17.562Z,13.40
2023-03-29T14:24:27.702Z,13.80
2023-03-29T14:29:34.311Z,14.00
2023-03-29T14:34:37.398Z,13.90
2023-03-29T14:39:41.173Z,13.40
2023-03-29T14:44:44.893Z,13.10
2023-03-29T14:49:47.596Z,13.20
2023-03-29T14:54:53.285Z,13.00
2023-03-29T15:00:00.748Z,13.00
2023-03-29T15:05:24.928Z,13.10
2023-03-29T15:10:31.656Z,13.50
2023-03-29T15:15:38.355Z,13.20
2023-03-29T15:20:41.988Z,12.90
2023-03-29T15:25:57.218Z,12.50
2023-03-29T15:31:19.170Z,12.30
2023-03-29T15:36:22.552Z,12.10
2023-03-29T15:41:26.279Z,12.10
2023-03-29T15:46:29.221Z,12.00
2023-03-29T15:51:32.012Z,12.00
2023-03-29T15:56:40.311Z,12.00
2023-03-29T16:01:44.750Z,11.90
2023-03-29T16:06:50.138Z,11.80
2023-03-29T16:11:52.682Z,11.80
2023-03-29T16:16:59.405Z,11.60
2023-03-29T16:22:07.158Z,11.20
2023-03-29T16:27:09.737Z,11.10
2023-03-29T16:32:12.263Z,11.30
2023-03-29T16:37:14.832Z,11.50
2023-03-29T16:47:20.238Z,12.60
2023-03-29T16:52:23.286Z,12.80
2023-03-29T16:57:26.727Z,12.90
2023-03-29T17:02:29.395Z,13.40
2023-03-29T17:07:32.455Z,14.10
2023-03-29T17:12:36.176Z,14.00
2023-03-29T17:17:38.978Z,13.40
2023-03-29T17:22:41.773Z,12.50
2023-03-29T17:27:45.468Z,12.80
2023-03-29T17:32:48.559Z,12.40
2023-03-29T17:37:51.218Z,12.50
2023-03-29T17:42:54.267Z,13.00
2023-03-29T17:47:57.202Z,12.60
2023-03-29T17:52:59.763Z,11.90
2023-03-29T17:58:02.413Z,11.00
2023-03-29T18:03:05.269Z,10.10
2023-03-29T18:08:08.734Z,9.80
2023-03-29T18:13:13.936Z,9.70
2023-03-29T18:23:19.880Z,8.80
2023-03-29T18:28:25.230Z,8.60
2023-03-29T18:33:28.746Z,7.20
2023-03-29T18:38:35.302Z,7.10
2023-03-29T18:48:42.664Z,6.60
2023-03-29T18:53:45.226Z,6.50
2023-03-29T18:58:48.469Z,6.50
2023-03-29T19:03:51.653Z,6.50
2023-03-29T19:08:55.458Z,6.60
2023-03-29T19:13:58.029Z,6.60
2023-03-29T19:19:00.553Z,6.60
2023-03-29T19:24:05.073Z,6.60
2023-03-29T19:29:08.629Z,6.60
2023-03-29T19:34:11.316Z,6.60
2023-03-29T19:39:14.051Z,6.60
2023-03-29T19:44:16.606Z,6.60
2023-03-29T19:49:19.336Z,6.60
2023-03-29T19:54:22.060Z,6.50
2023-03-29T19:59:25.872Z,6.50
2023-03-29T20:04:28.891Z,6.40
2023-03-29T20:09:32.817Z,6.50
2023-03-29T20:14:37.944Z,6.50
2023-03-29T20:19:44.116Z,6.90
2023-03-29T20:24:46.719Z,7.30
2023-03-29T20:29:49.154Z,8.00
2023-03-29T20:34:51.741Z,8.60
2023-03-29T20:39:56.732Z,9.10
2023-03-29T20:45:00.378Z,9.70
2023-03-29T20:50:04.207Z,10.20
2023-03-29T20:55:07.326Z,9.70
2023-03-29T21:00:12.027Z,8.20
2023-03-29T21:10:18.166Z,7.30
2023-03-29T21:15:21.056Z,7.10
2023-03-29T21:20:24.241Z,6.90
2023-03-29T21:25:26.937Z,6.80
2023-03-29T21:30:31.482Z,6.80
2023-03-29T21:35:35.622Z,6.90
2023-03-29T21:40:38.230Z,7.40
2023-03-29T21:45:40.682Z,7.80
2023-03-29T21:50:43.687Z,8.20
2023-03-29T21:55:48.959Z,8.50
2023-03-29T22:00:51.684Z,8.80
2023-03-29T22:06:02.690Z,9.00
2023-03-29T22:11:14.349Z,9.10
2023-03-29T22:16:18.726Z,8.90
2023-03-29T22:21:28.528Z,8.70
2023-03-29T22:26:32.685Z,8.50
2023-03-29T22:31:35.694Z,8.40
2023-03-29T22:36:38.539Z,8.30
2023-03-29T22:41:42.061Z,8.20
2023-03-29T22:46:44.669Z,8.10
2023-03-29T22:51:47.953Z,8.00
2023-03-29T22:56:50.525Z,7.90
2023-03-29T23:01:53.410Z,7.70
2023-03-29T23:06:56.435Z,7.70
2023-03-29T23:11:59.583Z,7.60
2023-03-29T23:17:02.475Z,7.50
2023-03-29T23:22:05.114Z,7.50
2023-03-29T23:27:07.768Z,7.50
2023-03-29T23:32:10.222Z,7.50
2023-03-29T23:37:12.710Z,7.30
2023-03-29T23:42:15.191Z,7.30
2023-03-29T23:47:17.695Z,7.10
2023-03-29T23:52:20.297Z,7.20
2023-03-29T23:57:23.004Z,7.10
